createdAt,value
2023-05-22T00:00:31.084Z,17.9
2023-05-22T00:06:23.733Z,17.9
2023-05-22T00:11:59.358Z,17.9
2023-05-22T00:17:50.835Z,17.9
2023-05-22T00:23:43.118Z,17.9
2023-05-22T00:29:34.405Z,17.9
2023-05-22T00:35:25.610Z,17.9
2023-05-22T00:41:17.703Z,17.9
2023-05-22T00:47:09.593Z,17.9
2023-05-22T00:53:00.372Z,17.9
2023-05-22T00:58:51.689Z,17.9
2023-05-22T01:04:45.183Z,17.9
2023-05-22T01:10:36.487Z,17.9
2023-05-22T01:16:28.021Z,17.9
2023-05-22T01:22:20.707Z,17.9
2023-05-22T01:28:11.950Z,17.9
2023-05-22T01:34:04.183Z,17.9
2023-05-22T01:39:55.177Z,17.9
2023-05-22T01:45:47.210Z,17.9
2023-05-22T01:51:38.806Z,17.9
2023-05-22T01:57:29.674Z,17.9
2023-05-22T02:03:23.037Z,17.9
2023-05-22T02:09:15.134Z,17.9
2023-05-22T02:15:06.871Z,17.9
2023-05-22T02:20:43.390Z,17.9
2023-05-22T02:26:35.333Z,17.9
2023-05-22T02:32:27.217Z,17.9
2023-05-22T02:38:18.825Z,17.9
2023-05-22T02:44:10.895Z,17.9
2023-05-22T02:50:02.937Z,17.9
2023-05-22T02:55:53.689Z,17.9
2023-05-22T03:01:46.060Z,17.9
2023-05-22T03:07:37.842Z,17.9
2023-05-22T03:13:29.423Z,17.8
2023-05-22T03:19:21.757Z,17.9
2023-05-22T03:25:13.022Z,17.8
2023-05-22T03:31:04.515Z,17.8
2023-05-22T03:36:56.946Z,17.8
2023-05-22T03:42:32.985Z,17.8
2023-05-22T03:48:10.895Z,17.8
2023-05-22T03:54:05.137Z,17.8
2023-05-22T03:59:56.040Z,17.8
2023-05-22T04:05:47.383Z,17.8
2023-05-22T04:11:40.050Z,17.8
2023-05-22T04:17:31.200Z,17.8
2023-05-22T04:23:22.509Z,17.8
2023-05-22T04:29:14.143Z,17.8
2023-05-22T04:34:50.792Z,17.8
2023-05-22T04:40:26.578Z,17.8
2023-05-22T04:46:20.411Z,17.8
2023-05-22T04:52:12.111Z,17.8
2023-05-22T04:58:15.715Z,17.8
2023-05-22T05:04:09.581Z,17.8
2023-05-22T05:10:02.134Z,17.8
2023-05-22T05:15:53.072Z,17.8
2023-05-22T05:21:49.087Z,17.8
2023-05-22T05:27:24.785Z,17.8
2023-05-22T05:33:15.796Z,17.8
2023-05-22T05:38:52.615Z,17.8
2023-05-22T05:44:43.918Z,17.8
2023-05-22T05:50:34.731Z,17.8
2023-05-22T05:56:27.107Z,17.8
2023-05-22T06:02:20.214Z,17.8
2023-05-22T06:08:12.661Z,17.8
2023-05-22T06:13:49.393Z,17.8
2023-05-22T06:19:42.279Z,17.8
2023-05-22T06:25:33.614Z,17.8
2023-05-22T06:31:45.333Z,17.8
2023-05-22T06:37:38.694Z,17.8
2023-05-22T06:43:29.787Z,17.8
2023-05-22T06:49:22.912Z,17.8
2023-05-22T06:55:14.547Z,17.8
2023-05-22T07:01:06.497Z,17.8
2023-05-22T07:07:00.042Z,17.8
2023-05-22T07:12:54.474Z,17.8
2023-05-22T07:18:48.989Z,17.8
2023-05-22T07:24:42.545Z,17.8
2023-05-22T07:30:34.434Z,17.8
2023-05-22T07:36:27.333Z,17.8
2023-05-22T07:42:21.640Z,17.8
2023-05-22T07:48:14.533Z,17.8
2023-05-22T07:54:06.506Z,17.8
2023-05-22T08:00:00.434Z,17.8
2023-05-22T08:05:39.064Z,17.8
2023-05-22T08:11:56.196Z,17.8
2023-05-22T08:17:57.074Z,17.8
2023-05-22T08:23:35.176Z,17.8
2023-05-22T08:29:27.454Z,17.8
2023-05-22T08:35:20.981Z,17.8
2023-05-22T08:41:15.464Z,17.8
2023-05-22T08:47:06.451Z,17.8
2023-05-22T08:52:59.772Z,17.8
2023-05-22T08:58:58.319Z,17.8
2023-05-22T09:04:52.630Z,17.8
2023-05-22T09:10:58.218Z,17.9
2023-05-22T09:16:51.261Z,17.9
2023-05-22T09:22:57.265Z,17.9
2023-05-22T09:28:50.299Z,17.9
2023-05-22T09:34:43.174Z,17.9
2023-05-22T09:40:36.037Z,17.9
2023-05-22T09:46:30.987Z,17.9
2023-05-22T09:52:24.087Z,17.9
2023-05-22T09:58:31.807Z,17.9
2023-05-22T10:04:27.506Z,17.9
2023-05-22T10:10:24.959Z,17.9
2023-05-22T10:16:18.718Z,17.9
2023-05-22T10:22:15.415Z,17.9
2023-05-22T10:27:53.274Z,17.9
2023-05-22T10:33:46.416Z,17.9
2023-05-22T10:39:50.748Z,17.9
2023-05-22T10:45:45.704Z,17.9
2023-05-22T10:51:24.087Z,17.9
2023-05-22T10:57:18.270Z,17.9
2023-05-22T11:03:22.720Z,17.9
2023-05-22T11:09:16.212Z,17.9
2023-05-22T11:15:13.332Z,17.9
2023-05-22T11:21:20.313Z,18
2023-05-22T11:27:13.370Z,18
2023-05-22T11:33:37.808Z,18
2023-05-22T11:39:14.777Z,18
2023-05-22T11:45:10.066Z,18
2023-05-22T11:51:15.500Z,18.1
2023-05-22T11:57:09.760Z,18.1
2023-05-22T12:03:06.174Z,18.2
2023-05-22T12:09:05.745Z,18.3
2023-05-22T12:15:01.400Z,18.3
2023-05-22T12:20:40.708Z,18.4
2023-05-22T12:26:36.091Z,18.4
2023-05-22T12:32:33.025Z,18.4
2023-05-22T12:38:12.102Z,18.4
2023-05-22T12:44:07.638Z,18.4
2023-05-22T12:49:47.828Z,18.5
2023-05-22T12:55:46.205Z,18.5
2023-05-22T13:01:41.857Z,18.5
2023-05-22T13:07:37.720Z,18.6
2023-05-22T13:13:19.543Z,18.6
2023-05-22T13:19:21.692Z,18.6
2023-05-22T13:25:23.524Z,18.6
2023-05-22T13:31:07.093Z,18.6
2023-05-22T13:37:06.057Z,18.6
2023-05-22T13:43:02.603Z,18.6
2023-05-22T13:54:37.861Z,18.6
2023-05-22T14:22:58.029Z,18.8
2023-05-22T14:28:52.075Z,18.8
2023-05-22T14:45:43.617Z,18.8
2023-05-22T14:51:49.778Z,18.8
2023-05-22T14:57:42.014Z,18.8
2023-05-22T15:03:36.255Z,18.8
2023-05-22T15:09:38.803Z,18.8
2023-05-22T15:15:30.811Z,18.8
2023-05-22T15:21:24.829Z,18.8
2023-05-22T15:27:31.214Z,18.8
2023-05-22T15:33:24.185Z,18.8
2023-05-22T15:39:17.321Z,18.8
2023-05-22T15:45:21.820Z,18.8
2023-05-22T15:51:14.702Z,18.8
2023-05-22T15:57:09.728Z,18.8
2023-05-22T16:03:04.479Z,18.8
2023-05-22T16:08:41.839Z,18.8
2023-05-22T16:14:35.165Z,18.8
2023-05-22T16:20:34.523Z,18.8
2023-05-22T16:26:41.131Z,18.8
2023-05-22T16:32:34.708Z,18.8
2023-05-22T16:38:12.681Z,18.8
2023-05-22T16:44:06.251Z,18.8
2023-05-22T16:49:59.527Z,18.8
2023-05-22T16:55:52.008Z,18.8
2023-05-22T17:01:44.622Z,18.8
2023-05-22T17:07:39.127Z,18.8
2023-05-22T17:13:16.030Z,18.8
2023-05-22T17:19:11.240Z,18.8
2023-05-22T17:25:05.234Z,18.8
2023-05-22T17:30:38.157Z,18.8
2023-05-22T17:36:30.624Z,18.8
2023-05-22T17:42:39.176Z,18.8
2023-05-22T17:48:32.228Z,18.8
2023-05-22T17:54:25.060Z,18.8
2023-05-22T18:00:03.080Z,18.8
2023-05-22T18:05:25.837Z,18.8
2023-05-22T18:11:20.793Z,18.8
2023-05-22T18:17:29.753Z,18.8
2023-05-22T18:23:21.552Z,18.8
2023-05-22T18:28:43.205Z,18.8
2023-05-22T18:34:37.299Z,18.8
2023-05-22T18:40:29.061Z,18.8
2023-05-22T18:46:21.315Z,18.8
2023-05-22T18:52:14.792Z,18.8
2023-05-22T18:58:07.054Z,18.8
2023-05-22T19:36:19.138Z,18.6
2023-05-22T19:42:12.590Z,18.6
2023-05-22T19:47:49.830Z,18.6
2023-05-22T19:53:43.141Z,18.6
2023-05-22T19:59:36.728Z,18.6
2023-05-22T20:05:14.607Z,18.6
2023-05-22T20:10:35.649Z,18.6
2023-05-22T20:16:13.539Z,18.6
2023-05-22T20:22:06.583Z,18.6
2023-05-22T20:27:59.190Z,18.6
2023-05-22T20:33:52.481Z,18.6
2023-05-22T20:39:45.171Z,18.6
2023-05-22T20:45:37.800Z,18.6
2023-05-22T20:51:15.167Z,18.6
2023-05-22T20:57:07.113Z,18.6
2023-05-22T21:02:59.286Z,18.5
2023-05-22T21:08:54.124Z,18.6
2023-05-22T21:14:46.879Z,18.5
2023-05-22T21:20:39.907Z,18.5
2023-05-22T21:26:32.841Z,18.5
2023-05-22T21:32:26.230Z,18.5
2023-05-22T21:38:18.312Z,18.5
2023-05-22T21:44:08.526Z,18.5
2023-05-22T21:50:01.089Z,18.4
2023-05-22T21:55:54.231Z,18.4
2023-05-22T22:01:47.730Z,18.4
2023-05-22T22:07:40.957Z,18.4
2023-05-22T22:13:33.302Z,18.4
2023-05-22T22:19:26.543Z,18.4
2023-05-22T22:25:32.028Z,18.4
2023-05-22T22:31:23.679Z,18.4
2023-05-22T22:37:17.056Z,18.4
2023-05-22T22:42:56.564Z,18.4
2023-05-22T22:48:34.792Z,18.4
2023-05-22T22:54:28.295Z,18.4
2023-05-22T23:00:21.111Z,18.4
2023-05-22T23:06:14.526Z,18.3
2023-05-22T23:12:07.145Z,18.4
2023-05-22T23:18:00.010Z,18.3
2023-05-22T23:23:36.555Z,18.3
2023-05-22T23:29:01.397Z,18.3
2023-05-22T23:34:37.708Z,18.3
2023-05-22T23:40:13.773Z,18.3
2023-05-22T23:45:51.320Z,18.3
2023-05-22T23:51:42.970Z,18.3
2023-05-22T23:57:35.216Z,18.3
